createdAt,value
2018-12-28T00:00:19.954Z,21.50
2018-12-28T00:02:48.687Z,22.60
2018-12-28T00:05:17.085Z,22.20
2018-12-28T00:07:45.758Z,22.10
2018-12-28T00:10:14.449Z,22.27
2018-12-28T00:12:42.833Z,22.27
2018-12-28T00:15:11.226Z,20.73
2018-12-28T00:17:39.608Z,21.50
2018-12-28T00:20:08.069Z,23.17
2018-12-28T00:22:36.524Z,23.90
2018-12-28T00:25:05.827Z,22.13
2018-12-28T00:27:34.211Z,22.17
2018-12-28T00:30:02.599Z,23.60
2018-12-28T00:32:30.979Z,22.40
2018-12-28T00:34:59.750Z,21.90
2018-12-28T00:37:28.140Z,21.30
2018-12-28T00:39:56.528Z,21.90
2018-12-28T00:42:25.482Z,20.00
2018-12-28T00:44:54.297Z,21.07
2018-12-28T00:47:23.007Z,19.93
2018-12-28T00:49:51.382Z,20.03
2018-12-28T00:52:19.776Z,21.97
2018-12-28T00:54:48.166Z,20.67
2018-12-28T00:57:16.617Z,20.53
2018-12-28T00:59:45.157Z,21.43
2018-12-28T01:02:13.553Z,21.20
2018-12-28T01:04:42.004Z,20.20
2018-12-28T01:07:10.612Z,21.43
2018-12-28T01:09:39.292Z,21.57
2018-12-28T01:12:08.401Z,20.53
2018-12-28T01:14:36.790Z,20.53
2018-12-28T01:17:05.757Z,20.30
2018-12-28T01:19:34.146Z,20.20
2018-12-28T01:22:02.532Z,21.10
2018-12-28T01:24:30.924Z,21.10
2018-12-28T01:26:59.719Z,19.30
2018-12-28T01:29:28.119Z,20.67
2018-12-28T01:31:56.498Z,20.63
2018-12-28T01:34:24.892Z,20.47
2018-12-28T01:36:53.276Z,21.10
2018-12-28T01:39:22.119Z,20.60
2018-12-28T01:41:50.502Z,21.13
2018-12-28T01:44:18.894Z,20.67
2018-12-28T01:46:47.763Z,21.50
2018-12-28T01:49:16.165Z,23.40
2018-12-28T01:51:44.544Z,21.10
2018-12-28T01:54:13.207Z,20.97
2018-12-28T01:56:41.591Z,20.63
2018-12-28T01:59:10.372Z,22.93
2018-12-28T02:01:38.754Z,23.77
2018-12-28T02:04:07.546Z,20.13
2018-12-28T02:06:35.933Z,22.73
2018-12-28T02:09:06.628Z,22.57
2018-12-28T02:11:35.014Z,21.33
2018-12-28T02:14:03.402Z,20.33
2018-12-28T02:16:31.794Z,21.77
2018-12-28T02:19:00.190Z,20.50
2018-12-28T02:21:28.664Z,22.53
2018-12-28T02:23:57.042Z,21.63
2018-12-28T02:26:25.436Z,21.53
2018-12-28T02:28:54.196Z,20.83
2018-12-28T02:31:23.088Z,19.33
2018-12-28T02:33:51.541Z,20.70
2018-12-28T02:36:19.942Z,19.57
2018-12-28T02:38:48.325Z,20.70
2018-12-28T02:41:17.017Z,20.20
2018-12-28T02:43:45.700Z,19.47
2018-12-28T02:46:14.101Z,20.40
2018-12-28T02:48:43.739Z,20.47
2018-12-28T02:51:12.044Z,20.43
2018-12-28T02:53:40.436Z,23.53
2018-12-28T02:56:09.141Z,22.77
2018-12-28T02:58:37.819Z,22.83
2018-12-28T03:01:06.205Z,22.77
2018-12-28T03:03:34.844Z,24.97
2018-12-28T03:06:03.502Z,24.90
2018-12-28T03:08:32.156Z,26.37
2018-12-28T03:11:00.541Z,24.27
2018-12-28T03:13:28.938Z,22.90
2018-12-28T03:15:57.320Z,24.20
2018-12-28T03:18:25.706Z,24.97
2018-12-28T03:20:54.331Z,24.43
2018-12-28T03:23:23.035Z,24.47
2018-12-28T03:25:51.724Z,24.63
2018-12-28T03:28:20.329Z,22.90
2018-12-28T03:30:49.123Z,20.60
2018-12-28T03:33:17.781Z,21.33
2018-12-28T03:35:46.170Z,20.93
2018-12-28T03:38:14.565Z,22.20
2018-12-28T03:40:42.954Z,19.60
2018-12-28T03:43:11.348Z,22.87
2018-12-28T03:45:39.746Z,21.27
2018-12-28T03:48:08.133Z,21.10
2018-12-28T03:50:36.528Z,21.83
2018-12-28T03:53:05.130Z,21.33
2018-12-28T03:55:33.514Z,21.57
2018-12-28T03:58:02.734Z,21.80
2018-12-28T04:00:31.135Z,22.77
2018-12-28T04:02:59.520Z,23.30
2018-12-28T04:05:28.284Z,24.03
2018-12-28T04:07:56.932Z,23.27
2018-12-28T04:10:25.637Z,22.87
2018-12-28T04:12:54.032Z,22.27
2018-12-28T04:15:22.571Z,23.50
2018-12-28T04:17:51.285Z,22.87
2018-12-28T04:20:19.657Z,21.70
2018-12-28T04:22:48.432Z,21.67
2018-12-28T04:25:16.822Z,21.43
2018-12-28T04:27:45.225Z,21.65
2018-12-28T04:30:13.613Z,22.50
2018-12-28T04:32:42.364Z,23.13
2018-12-28T04:35:10.751Z,24.10
2018-12-28T04:37:39.529Z,22.80
2018-12-28T04:40:09.243Z,22.33
2018-12-28T04:42:38.042Z,22.83
2018-12-28T04:45:06.612Z,21.37
2018-12-28T04:47:35.019Z,21.70
2018-12-28T04:50:04.166Z,22.80
2018-12-28T04:52:34.423Z,22.53
2018-12-28T04:55:04.417Z,21.53
2018-12-28T04:57:34.358Z,23.03
2018-12-28T05:00:04.386Z,22.30
2018-12-28T05:02:35.902Z,22.97
2018-12-28T05:05:10.353Z,21.20
2018-12-28T05:07:53.625Z,20.83
2018-12-28T05:10:30.858Z,21.53
2018-12-28T05:13:08.180Z,21.10
2018-12-28T05:15:48.112Z,19.70
2018-12-28T05:18:40.366Z,22.63
2018-12-28T05:21:11.803Z,20.80
2018-12-28T05:23:49.222Z,21.20
2018-12-28T05:26:20.659Z,20.37
2018-12-28T05:29:00.493Z,21.00
2018-12-28T05:31:30.231Z,21.60
2018-12-28T05:33:58.623Z,20.88
2018-12-28T05:36:27.028Z,20.57
2018-12-28T05:38:55.418Z,20.43
2018-12-28T05:41:24.409Z,20.07
2018-12-28T05:43:52.806Z,20.25
2018-12-28T05:46:21.199Z,21.43
2018-12-28T05:48:49.594Z,23.35
2018-12-28T05:51:18.335Z,21.20
2018-12-28T05:53:46.730Z,20.23
2018-12-28T05:56:15.129Z,20.50
2018-12-28T05:58:43.505Z,20.43
2018-12-28T06:01:12.165Z,23.27
2018-12-28T06:03:40.641Z,22.90
2018-12-28T06:06:09.034Z,24.02
2018-12-28T06:08:37.430Z,21.57
2018-12-28T06:11:05.818Z,22.33
2018-12-28T06:13:34.399Z,21.40
2018-12-28T06:16:03.059Z,19.98
2018-12-28T06:18:31.506Z,20.13
2018-12-28T06:21:00.311Z,20.00
2018-12-28T06:23:28.700Z,20.30
2018-12-28T06:25:57.102Z,21.45
2018-12-28T06:28:25.671Z,20.08
2018-12-28T06:30:54.055Z,19.00
2018-12-28T06:33:22.458Z,18.07
2018-12-28T06:35:51.208Z,19.13
2018-12-28T06:38:19.607Z,18.85
2018-12-28T06:40:48.293Z,18.03
2018-12-28T06:43:16.679Z,18.77
2018-12-28T06:45:45.080Z,23.27
2018-12-28T06:48:13.587Z,21.45
2018-12-28T06:50:42.323Z,23.65
2018-12-28T06:53:30.420Z,23.52
2018-12-28T06:56:14.484Z,20.80
2018-12-28T06:59:19.151Z,20.67
2018-12-28T07:02:13.398Z,20.77
2018-12-28T07:04:47.344Z,21.62
2018-12-28T07:07:53.666Z,21.80
2018-12-28T07:10:30.800Z,19.30
2018-12-28T07:13:20.336Z,22.00
2018-12-28T07:16:06.754Z,19.25
2018-12-28T07:18:38.208Z,19.55
2018-12-28T07:21:26.042Z,20.48
2018-12-28T07:24:00.420Z,19.90
2018-12-28T07:26:58.106Z,22.17
2018-12-28T07:30:02.797Z,22.55
2018-12-28T07:32:49.314Z,22.90
2018-12-28T07:35:44.713Z,23.62
2018-12-28T07:38:30.817Z,23.73
2018-12-28T07:41:17.323Z,22.22
2018-12-28T07:43:51.783Z,21.37
2018-12-28T07:46:29.154Z,21.20
2018-12-28T07:49:06.286Z,21.05
2018-12-28T07:51:54.411Z,20.27
2018-12-28T07:54:28.691Z,22.05
2018-12-28T07:57:00.319Z,20.55
2018-12-28T08:00:00.586Z,20.80
2018-12-28T08:02:51.446Z,20.65
2018-12-28T08:05:50.594Z,19.95
2018-12-28T08:08:42.855Z,19.15
2018-12-28T08:11:33.451Z,20.50
2018-12-28T08:14:36.903Z,20.57
2018-12-28T08:17:20.115Z,21.63
2018-12-28T08:20:11.013Z,21.35
2018-12-28T08:22:51.248Z,20.52
2018-12-28T08:25:40.912Z,22.13
2018-12-28T08:28:44.939Z,21.27
2018-12-28T08:31:24.830Z,22.48
2018-12-28T08:34:20.075Z,22.80
2018-12-28T08:37:03.294Z,22.20
2018-12-28T08:39:49.539Z,22.93
2018-12-28T08:42:30.376Z,23.10
2018-12-28T08:45:02.130Z,22.55
2018-12-28T08:47:45.167Z,21.45
2018-12-28T08:50:33.042Z,22.80
2018-12-28T08:53:16.095Z,24.37
2018-12-28T08:56:02.539Z,24.65
2018-12-28T08:58:54.554Z,25.20
2018-12-28T09:01:26.009Z,25.32
2018-12-28T09:04:12.539Z,25.90
2018-12-28T09:07:09.864Z,26.43
2018-12-28T09:09:47.030Z,26.12
2018-12-28T09:12:24.358Z,24.30
2018-12-28T09:15:05.217Z,24.63
2018-12-28T09:18:03.995Z,25.13
2018-12-28T09:20:54.539Z,24.87
2018-12-28T09:23:25.943Z,25.97
2018-12-28T09:26:22.215Z,26.40
2018-12-28T09:28:59.703Z,25.60
2018-12-28T09:31:45.524Z,24.53
2018-12-28T09:34:25.943Z,25.10
2018-12-28T09:37:30.777Z,25.70
2018-12-28T09:40:17.033Z,24.30
2018-12-28T09:42:48.489Z,23.93
2018-12-28T09:45:31.749Z,24.70
2018-12-28T09:48:00.675Z,24.47
2018-12-28T09:50:40.553Z,25.50
2018-12-28T09:53:17.740Z,25.93
2018-12-28T09:56:04.000Z,24.40
2018-12-28T09:58:38.105Z,25.60
2018-12-28T10:01:27.407Z,29.47
2018-12-28T10:04:01.558Z,27.27
2018-12-28T10:06:33.004Z,29.03
2018-12-28T10:09:16.186Z,29.97
2018-12-28T10:12:05.745Z,25.93
2018-12-28T10:14:42.571Z,26.30
2018-12-28T10:17:11.001Z,30.73
2018-12-28T10:19:39.648Z,25.37
2018-12-28T10:22:08.034Z,31.30
2018-12-28T10:24:37.560Z,27.87
2018-12-28T10:27:06.804Z,26.20
2018-12-28T10:29:35.196Z,25.57
2018-12-28T10:32:03.594Z,27.30
2018-12-28T10:34:31.997Z,23.87
2018-12-28T10:37:00.385Z,26.80
2018-12-28T10:39:28.772Z,29.77
2018-12-28T10:41:57.160Z,28.20
2018-12-28T10:44:25.890Z,29.03
2018-12-28T10:46:54.597Z,30.73
2018-12-28T10:49:23.264Z,31.33
2018-12-28T10:51:51.654Z,29.70
2018-12-28T10:54:20.435Z,31.73
2018-12-28T10:56:48.819Z,31.27
2018-12-28T10:59:17.214Z,32.33
2018-12-28T11:01:45.660Z,30.70
2018-12-28T11:04:14.361Z,33.80
2018-12-28T11:06:42.743Z,32.87
2018-12-28T11:09:11.137Z,32.17
2018-12-28T11:11:45.804Z,30.70
2018-12-28T11:14:09.620Z,29.63
2018-12-28T11:16:38.006Z,31.67
2018-12-28T11:19:06.680Z,33.80
2018-12-28T11:21:35.368Z,34.07
2018-12-28T11:24:03.755Z,32.53
2018-12-28T11:26:32.173Z,34.97
2018-12-28T11:29:00.563Z,36.80
2018-12-28T11:31:28.965Z,40.90
2018-12-28T11:33:57.354Z,37.03
2018-12-28T11:36:25.763Z,38.10
2018-12-28T11:38:54.145Z,37.20
2018-12-28T11:41:22.811Z,41.03
2018-12-28T11:43:51.192Z,37.93
2018-12-28T11:46:19.587Z,38.30
2018-12-28T11:48:48.461Z,36.63
2018-12-28T11:51:17.144Z,36.77
2018-12-28T11:53:45.528Z,35.70
2018-12-28T11:56:13.921Z,37.43
2018-12-28T11:58:42.306Z,36.27
2018-12-28T12:01:10.698Z,39.17
2018-12-28T12:03:39.083Z,41.03
2018-12-28T12:06:07.470Z,43.77
2018-12-28T12:08:35.858Z,45.33
2018-12-28T12:11:04.253Z,47.60
2018-12-28T12:13:33.068Z,45.07
2018-12-28T12:16:01.458Z,43.87
2018-12-28T12:18:29.853Z,47.00
2018-12-28T12:20:58.235Z,45.57
2018-12-28T12:23:26.623Z,43.30
2018-12-28T12:25:55.012Z,44.97
2018-12-28T12:28:23.749Z,42.90
2018-12-28T12:30:53.473Z,42.50
2018-12-28T12:33:21.862Z,44.63
2018-12-28T12:35:50.255Z,45.23
2018-12-28T12:38:18.915Z,48.60
2018-12-28T12:40:47.290Z,43.90
2018-12-28T12:43:15.683Z,45.87
2018-12-28T12:45:44.063Z,47.53
2018-12-28T12:48:12.452Z,43.40
2018-12-28T12:50:41.125Z,48.30
2018-12-28T12:53:09.791Z,44.77
2018-12-28T12:55:38.176Z,43.77
2018-12-28T12:58:06.696Z,48.10
2018-12-28T13:00:35.354Z,46.00
2018-12-28T13:03:03.739Z,43.17
2018-12-28T13:05:32.403Z,44.20
2018-12-28T13:08:01.191Z,46.03
2018-12-28T13:10:29.771Z,46.87
2018-12-28T13:12:58.460Z,42.40
2018-12-28T13:15:27.361Z,52.40
2018-12-28T13:17:55.757Z,43.83
2018-12-28T13:20:24.724Z,47.00
2018-12-28T13:22:53.114Z,41.57
2018-12-28T13:25:22.699Z,46.70
2018-12-28T13:27:51.263Z,44.43
2018-12-28T13:30:20.090Z,45.07
2018-12-28T13:32:48.482Z,45.90
2018-12-28T13:35:17.257Z,43.10
2018-12-28T13:37:45.935Z,45.20
2018-12-28T13:40:14.625Z,41.50
2018-12-28T13:42:43.020Z,49.87
2018-12-28T13:45:11.394Z,45.77
2018-12-28T13:47:40.068Z,44.37
2018-12-28T13:50:08.449Z,47.57
2018-12-28T13:52:36.847Z,40.90
2018-12-28T13:55:05.301Z,48.60
2018-12-28T13:57:33.693Z,44.73
2018-12-28T14:00:02.488Z,43.67
2018-12-28T14:02:31.163Z,43.87
2018-12-28T14:04:59.847Z,47.80
2018-12-28T14:07:28.734Z,45.07
2018-12-28T14:09:57.135Z,44.77
2018-12-28T14:12:29.354Z,45.83
2018-12-28T14:14:55.636Z,44.20
2018-12-28T14:17:24.277Z,42.97
2018-12-28T14:19:52.668Z,44.47
2018-12-28T14:22:21.244Z,42.83
2018-12-28T14:24:49.949Z,44.60
2018-12-28T14:27:18.336Z,42.83
2018-12-28T14:29:46.723Z,39.50
2018-12-28T14:32:15.216Z,48.87
2018-12-28T14:34:43.648Z,44.90
2018-12-28T14:37:12.033Z,49.03
2018-12-28T14:39:44.730Z,49.80
2018-12-28T14:42:13.383Z,45.87
2018-12-28T14:44:41.769Z,45.63
2018-12-28T14:47:10.793Z,45.80
2018-12-28T14:49:39.179Z,42.03
2018-12-28T14:52:07.852Z,46.63
2018-12-28T14:54:36.224Z,45.67
2018-12-28T14:57:04.904Z,47.13
2018-12-28T14:59:33.813Z,45.53
2018-12-28T15:02:02.568Z,43.70
2018-12-28T15:04:30.968Z,48.67
2018-12-28T15:06:59.873Z,43.90
2018-12-28T15:09:28.905Z,50.87
2018-12-28T15:12:01.547Z,48.70
2018-12-28T15:14:34.878Z,47.47
2018-12-28T15:17:03.260Z,45.50
2018-12-28T15:19:32.111Z,49.60
2018-12-28T15:22:00.504Z,50.70
2018-12-28T15:24:29.194Z,47.00
2018-12-28T15:26:57.592Z,44.30
2018-12-28T15:29:26.357Z,50.27
2018-12-28T15:31:54.904Z,48.33
2018-12-28T15:34:23.287Z,44.17
2018-12-28T15:36:51.880Z,43.00
2018-12-28T15:39:20.264Z,45.10
2018-12-28T15:41:49.054Z,47.30
2018-12-28T15:44:17.450Z,47.27
2018-12-28T15:46:46.224Z,50.53
2018-12-28T15:49:14.614Z,44.20
2018-12-28T15:51:42.991Z,47.60
2018-12-28T15:54:11.396Z,47.50
2018-12-28T15:56:39.770Z,45.50
2018-12-28T15:59:08.176Z,41.30
2018-12-28T16:01:36.553Z,42.17
2018-12-28T16:04:05.373Z,46.07
2018-12-28T16:06:33.775Z,47.17
2018-12-28T16:09:02.130Z,48.47
2018-12-28T16:11:30.838Z,47.00
2018-12-28T16:13:59.534Z,46.20
2018-12-28T16:16:28.070Z,51.07
2018-12-28T16:18:56.486Z,43.90
2018-12-28T16:21:24.871Z,43.57
2018-12-28T16:23:54.157Z,44.87
2018-12-28T16:26:22.549Z,46.20
2018-12-28T16:28:51.206Z,45.43
2018-12-28T16:31:19.920Z,49.40
2018-12-28T16:33:49.553Z,44.53
2018-12-28T16:36:18.021Z,48.73
2018-12-28T16:38:46.826Z,47.80
2018-12-28T16:41:15.482Z,46.40
2018-12-28T16:43:44.376Z,48.27
2018-12-28T16:46:12.887Z,46.47
2018-12-28T16:48:41.279Z,47.23
2018-12-28T16:51:10.190Z,45.20
2018-12-28T16:53:38.579Z,47.93
2018-12-28T16:56:06.951Z,52.57
2018-12-28T16:58:35.353Z,51.33
2018-12-28T17:01:03.827Z,52.53
2018-12-28T17:03:32.261Z,50.10
2018-12-28T17:06:01.144Z,44.57
2018-12-28T17:08:29.549Z,50.10
2018-12-28T17:10:57.997Z,46.70
2018-12-28T17:13:26.428Z,50.90
2018-12-28T17:15:55.277Z,44.37
2018-12-28T17:18:23.720Z,48.37
2018-12-28T17:20:52.480Z,48.77
2018-12-28T17:23:21.305Z,45.80
2018-12-28T17:25:49.689Z,46.50
2018-12-28T17:28:18.205Z,46.13
2018-12-28T17:30:46.759Z,51.67
2018-12-28T17:33:15.164Z,51.93
2018-12-28T17:35:43.636Z,50.60
2018-12-28T17:38:12.145Z,51.33
2018-12-28T17:40:41.037Z,49.17
2018-12-28T17:43:09.425Z,46.40
2018-12-28T17:45:37.807Z,55.17
2018-12-28T17:48:06.203Z,50.57
2018-12-28T17:50:34.921Z,52.67
2018-12-28T17:53:03.313Z,50.00
2018-12-28T17:55:31.707Z,45.70
2018-12-28T17:58:00.094Z,48.63
2018-12-28T18:00:28.727Z,52.13
2018-12-28T18:02:57.111Z,47.77
2018-12-28T18:05:25.673Z,48.80
2018-12-28T18:07:54.370Z,52.20
2018-12-28T18:10:22.758Z,57.63
2018-12-28T18:12:51.525Z,51.63
2018-12-28T18:15:19.931Z,51.50
2018-12-28T18:17:48.487Z,45.63
2018-12-28T18:20:17.193Z,46.73
2018-12-28T18:22:45.881Z,47.80
2018-12-28T18:25:14.343Z,47.27
2018-12-28T18:27:42.773Z,47.13
2018-12-28T18:30:11.533Z,53.97
2018-12-28T18:32:40.245Z,50.60
2018-12-28T18:35:08.633Z,51.83
2018-12-28T18:37:37.251Z,50.73
2018-12-28T18:40:06.316Z,52.70
2018-12-28T18:42:34.731Z,49.73
2018-12-28T18:45:03.257Z,51.60
2018-12-28T18:47:31.842Z,49.90
2018-12-28T18:50:00.251Z,50.00
2018-12-28T18:52:28.637Z,49.20
2018-12-28T18:54:57.029Z,56.20
2018-12-28T18:57:25.446Z,56.97
2018-12-28T18:59:53.864Z,56.57
2018-12-28T19:02:22.288Z,58.53
2018-12-28T19:04:50.796Z,59.47
2018-12-28T19:07:19.199Z,61.07
2018-12-28T19:09:47.591Z,56.83
2018-12-28T19:12:16.376Z,52.20
2018-12-28T19:14:44.856Z,49.93
2018-12-28T19:17:13.176Z,60.60
2018-12-28T19:19:42.030Z,52.60
2018-12-28T19:22:10.418Z,48.40
2018-12-28T19:24:38.925Z,52.80
2018-12-28T19:27:07.622Z,52.07
2018-12-28T19:29:36.729Z,55.63
2018-12-28T19:32:05.106Z,50.10
2018-12-28T19:34:33.505Z,55.20
2018-12-28T19:37:02.168Z,52.00
2018-12-28T19:39:30.564Z,51.07
2018-12-28T19:41:59.333Z,50.83
2018-12-28T19:44:27.942Z,53.30
2018-12-28T19:46:56.710Z,50.80
2018-12-28T19:49:25.389Z,51.50
2018-12-28T19:51:53.767Z,51.13
2018-12-28T19:54:22.163Z,48.83
2018-12-28T19:56:50.554Z,51.43
2018-12-28T19:59:18.933Z,49.43
2018-12-28T20:01:47.333Z,53.97
2018-12-28T20:04:15.711Z,47.23
2018-12-28T20:06:44.555Z,48.70
2018-12-28T20:09:13.027Z,47.83
2018-12-28T20:11:41.415Z,49.43
2018-12-28T20:14:09.800Z,51.47
2018-12-28T20:16:38.189Z,51.27
2018-12-28T20:19:06.994Z,51.60
2018-12-28T20:21:35.382Z,52.53
2018-12-28T20:24:04.136Z,50.80
2018-12-28T20:26:32.812Z,50.57
2018-12-28T20:29:01.198Z,48.27
2018-12-28T20:31:29.813Z,49.03
2018-12-28T20:33:58.215Z,44.30
2018-12-28T20:36:26.951Z,46.87
2018-12-28T20:38:56.862Z,49.43
2018-12-28T20:41:25.262Z,42.80
2018-12-28T20:43:53.640Z,44.53
2018-12-28T20:46:22.315Z,45.10
2018-12-28T20:48:50.706Z,47.67
2018-12-28T20:51:19.314Z,45.97
2018-12-28T20:53:47.712Z,41.70
2018-12-28T20:56:16.095Z,47.33
2018-12-28T20:58:44.483Z,42.90
2018-12-28T21:01:12.881Z,43.70
2018-12-28T21:03:41.284Z,41.10
2018-12-28T21:06:09.683Z,41.07
2018-12-28T21:08:38.442Z,42.33
2018-12-28T21:11:06.843Z,43.10
2018-12-28T21:13:35.222Z,42.27
2018-12-28T21:16:03.626Z,40.50
2018-12-28T21:18:32.020Z,44.57
2018-12-28T21:21:00.621Z,43.67
2018-12-28T21:23:29.022Z,43.10
2018-12-28T21:25:57.412Z,40.47
2018-12-28T21:28:26.290Z,44.27
2018-12-28T21:30:54.685Z,40.00
2018-12-28T21:33:23.684Z,38.63
2018-12-28T21:35:52.072Z,43.07
2018-12-28T21:38:20.529Z,40.67
2018-12-28T21:40:49.101Z,42.03
2018-12-28T21:43:17.561Z,37.57
2018-12-28T21:45:46.249Z,41.00
2018-12-28T21:48:15.363Z,37.20
2018-12-28T21:50:43.762Z,39.23
2018-12-28T21:53:12.533Z,35.73
2018-12-28T21:55:41.217Z,41.07
2018-12-28T21:58:09.601Z,42.97
2018-12-28T22:00:37.983Z,41.97
2018-12-28T22:03:06.665Z,41.53
2018-12-28T22:05:35.347Z,39.30
2018-12-28T22:08:03.734Z,40.27
2018-12-28T22:10:32.375Z,37.90
2018-12-28T22:13:00.770Z,40.10
2018-12-28T22:15:29.155Z,41.40
2018-12-28T22:17:57.987Z,39.43
2018-12-28T22:20:26.364Z,40.37
2018-12-28T22:22:54.759Z,37.23
2018-12-28T22:25:23.164Z,38.30
2018-12-28T22:27:51.558Z,41.63
2018-12-28T22:30:19.945Z,43.00
2018-12-28T22:32:48.642Z,35.73
2018-12-28T22:35:17.049Z,36.97
2018-12-28T22:37:45.810Z,40.67
2018-12-28T22:40:14.495Z,42.97
2018-12-28T22:42:42.897Z,41.67
2018-12-28T22:45:11.282Z,38.27
2018-12-28T22:47:39.676Z,39.47
2018-12-28T22:50:08.130Z,39.97
2018-12-28T22:52:36.508Z,41.50
2018-12-28T22:55:05.541Z,38.30
2018-12-28T22:57:33.920Z,36.30
2018-12-28T23:00:02.784Z,39.03
2018-12-28T23:02:31.175Z,38.33
2018-12-28T23:04:59.922Z,42.63
2018-12-28T23:07:28.815Z,38.63
2018-12-28T23:09:57.202Z,42.57
2018-12-28T23:12:25.591Z,41.50
2018-12-28T23:14:54.052Z,39.33
2018-12-28T23:17:22.716Z,41.47
2018-12-28T23:19:51.110Z,44.67
2018-12-28T23:22:19.613Z,40.40
2018-12-28T23:24:49.824Z,39.80
2018-12-28T23:27:18.506Z,42.40
2018-12-28T23:29:46.891Z,39.80
2018-12-28T23:32:15.276Z,42.90
2018-12-28T23:34:43.945Z,40.50
2018-12-28T23:37:12.350Z,44.77
2018-12-28T23:39:40.902Z,48.37
2018-12-28T23:42:09.286Z,42.37
2018-12-28T23:44:37.679Z,42.07
2018-12-28T23:47:06.068Z,41.23
2018-12-28T23:49:34.840Z,41.10
2018-12-28T23:52:03.527Z,41.40
2018-12-28T23:54:31.986Z,47.17
2018-12-28T23:57:00.399Z,40.93
2018-12-28T23:59:28.796Z,39.27
